createdAt,value
2022-11-21T00:02:51.696Z,10.7
2022-11-21T00:08:30.264Z,9.6
2022-11-21T00:13:48.137Z,8.4
2022-11-21T00:19:31.077Z,11.9
2022-11-21T00:24:58.483Z,11.9
2022-11-21T00:30:40.479Z,11.9
2022-11-21T00:36:12.092Z,10.7
2022-11-21T00:41:44.782Z,11.9
2022-11-21T00:47:09.757Z,11.9
2022-11-21T00:52:33.298Z,10.7
2022-11-21T00:58:08.286Z,9.6
2022-11-21T01:03:54.255Z,11.9
2022-11-21T01:09:10.502Z,9.6
2022-11-21T01:14:37.742Z,9.6
2022-11-21T01:20:35.832Z,7.2
2022-11-21T01:25:53.646Z,11.9
2022-11-21T01:31:27.743Z,7.2
2022-11-21T01:37:08.204Z,11.9
2022-11-21T01:42:35.594Z,13.2
2022-11-21T01:48:28.524Z,13.2
2022-11-21T01:53:42.228Z,10.7
2022-11-21T01:59:27.548Z,11.9
2022-11-21T02:04:42.443Z,14.4
2022-11-21T02:10:40.709Z,14.4
2022-11-21T02:16:06.694Z,13.2
2022-11-21T02:21:20.387Z,9.6
2022-11-21T02:26:52.808Z,9.6
2022-11-21T02:32:42.552Z,14.4
2022-11-21T02:38:05.669Z,11.9
2022-11-21T02:43:29.377Z,8.4
2022-11-21T02:49:25.404Z,10.7
2022-11-21T02:54:36.064Z,10.7
2022-11-21T03:00:08.658Z,8.4
2022-11-21T03:05:59.464Z,8.4
2022-11-21T03:11:36.007Z,8.4
2022-11-21T03:16:47.230Z,5.9
2022-11-21T03:22:22.831Z,8.4
2022-11-21T03:28:07.327Z,11.9
2022-11-21T03:33:37.727Z,11.9
2022-11-21T03:39:22.787Z,8.4
2022-11-21T03:44:37.881Z,4.8
2022-11-21T03:50:14.334Z,4.8
2022-11-21T03:55:48.943Z,7.2
2022-11-21T04:01:13.295Z,5.9
2022-11-21T04:06:50.951Z,8.4
2022-11-21T04:12:28.021Z,9.6
2022-11-21T04:18:20.437Z,10.7
2022-11-21T04:23:27.370Z,10.7
2022-11-21T04:29:12.989Z,11.9
2022-11-21T04:35:00.617Z,7.2
2022-11-21T04:40:31.211Z,8.4
2022-11-21T04:45:57.270Z,9.6
2022-11-21T04:51:10.709Z,9.6
2022-11-21T04:57:11.147Z,9.6
2022-11-21T05:02:28.910Z,8.4
2022-11-21T05:07:54.497Z,9.6
2022-11-21T05:13:42.365Z,10.7
2022-11-21T05:19:01.382Z,9.6
2022-11-21T05:24:51.352Z,9.6
2022-11-21T05:30:16.790Z,7.2
2022-11-21T05:35:34.578Z,8.4
2022-11-21T05:41:14.813Z,8.4
2022-11-21T05:47:04.689Z,9.6
2022-11-21T05:52:22.548Z,9.6
2022-11-21T05:57:56.277Z,7.2
2022-11-21T06:03:38.470Z,9.6
2022-11-21T06:09:20.182Z,10.7
2022-11-21T06:14:42.456Z,8.4
2022-11-21T06:20:08.194Z,5.9
2022-11-21T06:25:34.304Z,5.9
2022-11-21T06:31:22.230Z,7.2
2022-11-21T06:36:40.684Z,8.4
2022-11-21T06:42:10.597Z,7.2
2022-11-21T06:47:44.192Z,8.4
2022-11-21T06:53:27.047Z,7.2
2022-11-21T06:59:04.386Z,8.4
2022-11-21T07:04:43.235Z,9.6
2022-11-21T07:10:08.377Z,9.6
2022-11-21T07:15:56.960Z,8.4
2022-11-21T07:21:09.678Z,5.9
2022-11-21T07:27:05.823Z,5.9
2022-11-21T07:32:29.653Z,5.9
2022-11-21T07:38:04.716Z,4.8
2022-11-21T07:43:26.083Z,5.9
2022-11-21T07:48:53.181Z,4.8
2022-11-21T07:54:28.808Z,3.6
2022-11-21T08:00:22.632Z,2.4
2022-11-21T08:05:31.823Z,4.8
2022-11-21T08:11:23.134Z,2.4
2022-11-21T08:16:52.920Z,4.8
2022-11-21T08:22:26.287Z,3.6
2022-11-21T08:27:59.683Z,4.8
2022-11-21T08:33:38.978Z,5.9
2022-11-21T08:39:10.179Z,5.9
2022-11-21T08:44:46.932Z,7.2
2022-11-21T08:50:07.546Z,4.8
2022-11-21T08:55:54.176Z,4.8
2022-11-21T09:01:22.461Z,3.6
2022-11-21T09:06:49.233Z,4.8
2022-11-21T09:12:19.715Z,5.9
2022-11-21T09:17:52.103Z,4.8
2022-11-21T09:23:39.940Z,5.9
2022-11-21T09:28:50.594Z,3.6
2022-11-21T09:34:24.124Z,4.8
2022-11-21T09:40:23.595Z,5.9
2022-11-21T09:45:48.263Z,0
2022-11-21T09:51:05.546Z,4.8
2022-11-21T09:57:00.994Z,4.8
2022-11-21T10:02:22.375Z,4.8
2022-11-21T10:07:54.361Z,4.8
2022-11-21T10:13:21.178Z,7.2
2022-11-21T10:19:15.456Z,4.8
2022-11-21T10:24:26.334Z,4.8
2022-11-21T10:30:01.879Z,5.9
2022-11-21T10:35:57.423Z,4.8
2022-11-21T10:41:30.172Z,4.8
2022-11-21T10:46:41.451Z,5.9
2022-11-21T10:52:25.531Z,7.2
2022-11-21T10:58:06.944Z,5.9
2022-11-21T11:03:45.572Z,5.9
2022-11-21T11:08:50.209Z,5.9
2022-11-21T11:14:38.110Z,4.8
2022-11-21T11:20:21.867Z,4.8
2022-11-21T11:25:33.785Z,2.4
2022-11-21T11:31:05.305Z,3.6
2022-11-21T11:36:50.051Z,0
2022-11-21T11:42:18.145Z,3.6
2022-11-21T11:48:07.589Z,5.9
2022-11-21T11:53:39.927Z,3.6
2022-11-21T11:59:00.034Z,4.8
2022-11-21T12:04:25.312Z,2.4
2022-11-21T12:10:00.185Z,3.6
2022-11-21T12:15:57.250Z,3.6
2022-11-21T12:21:23.175Z,4.8
2022-11-21T12:26:43.113Z,0
2022-11-21T12:32:32.827Z,5.9
2022-11-21T12:37:59.911Z,3.6
2022-11-21T12:43:42.425Z,0
2022-11-21T12:49:13.392Z,0
2022-11-21T12:54:34.852Z,0
2022-11-21T13:00:06.628Z,2.4
2022-11-21T13:05:50.544Z,3.6
2022-11-21T13:11:04.805Z,0
2022-11-21T13:16:49.423Z,0
2022-11-21T13:22:08.371Z,0
2022-11-21T13:27:59.728Z,0
2022-11-21T13:33:27.755Z,0
2022-11-21T13:38:46.980Z,0
2022-11-21T13:44:22.093Z,0
2022-11-21T13:50:03.251Z,0
2022-11-21T13:55:36.380Z,2.4
2022-11-21T14:01:19.926Z,0
2022-11-21T14:06:32.439Z,0
2022-11-21T14:12:31.653Z,3.6
2022-11-21T14:17:55.365Z,5.9
2022-11-21T14:23:34.664Z,3.6
2022-11-21T14:28:52.922Z,0
2022-11-21T14:34:28.063Z,0
2022-11-21T14:39:51.287Z,4.8
2022-11-21T14:45:24.317Z,3.6
2022-11-21T14:51:17.548Z,0
2022-11-21T14:56:28.208Z,0
2022-11-21T15:02:15.984Z,0
2022-11-21T15:07:32.588Z,0
2022-11-21T15:13:17.413Z,0
2022-11-21T15:18:40.369Z,0
2022-11-21T15:24:16.549Z,0
2022-11-21T15:30:02.064Z,0
2022-11-21T15:35:15.550Z,0
2022-11-21T15:40:59.143Z,0
2022-11-21T15:46:25.735Z,0
2022-11-21T15:52:12.546Z,0
2022-11-21T15:57:42.942Z,0
2022-11-21T16:03:08.870Z,0
2022-11-21T16:08:20.834Z,0
2022-11-21T16:14:02.674Z,0
2022-11-21T16:19:33.782Z,0
2022-11-21T16:25:00.461Z,0
2022-11-21T16:30:49.940Z,0
2022-11-21T16:36:05.953Z,0
2022-11-21T16:41:53.954Z,0
2022-11-21T16:47:33.137Z,0
2022-11-21T16:52:59.108Z,0
2022-11-21T16:58:21.145Z,0
2022-11-21T17:04:03.094Z,0
2022-11-21T17:09:19.111Z,0
2022-11-21T17:15:06.599Z,0
2022-11-21T17:20:30.402Z,7.2
2022-11-21T17:26:19.060Z,8.4
2022-11-21T17:31:43.789Z,10.7
2022-11-21T17:37:03.552Z,10.7
2022-11-21T17:42:44.866Z,7.2
2022-11-21T17:48:16.251Z,9.6
2022-11-21T17:53:42.696Z,10.7
2022-11-21T17:59:16.606Z,7.2
2022-11-21T18:05:08.394Z,5.9
2022-11-21T18:10:41.276Z,7.2
2022-11-21T18:16:00.635Z,7.2
2022-11-21T18:21:39.183Z,5.9
2022-11-21T18:26:55.913Z,7.2
2022-11-21T18:32:48.964Z,5.9
2022-11-21T18:38:46.657Z,5.9
2022-11-21T18:43:57.707Z,5.9
2022-11-21T18:49:08.723Z,4.8
2022-11-21T18:55:05.715Z,4.8
2022-11-21T19:00:40.553Z,5.9
2022-11-21T19:05:46.515Z,8.4
2022-11-21T19:11:25.330Z,10.7
2022-11-21T19:17:12.430Z,7.2
2022-11-21T19:22:31.812Z,8.4
2022-11-21T19:28:02.650Z,5.9
2022-11-21T19:33:38.032Z,3.6
2022-11-21T19:39:07.175Z,4.8
2022-11-21T19:44:40.206Z,3.6
2022-11-21T19:50:07.390Z,3.6
2022-11-21T19:55:52.649Z,3.6
2022-11-21T20:01:32.513Z,3.6
2022-11-21T20:07:00.300Z,2.4
2022-11-21T20:12:22.585Z,4.8
2022-11-21T20:18:07.071Z,4.8
2022-11-21T20:23:31.975Z,3.6
2022-11-21T20:29:00.646Z,3.6
2022-11-21T20:34:30.359Z,2.4
2022-11-21T20:40:17.103Z,0
2022-11-21T20:46:15.619Z,0
2022-11-21T20:56:44.900Z,0
2022-11-21T21:02:11.261Z,0
2022-11-21T21:07:46.588Z,3.6
2022-11-21T21:13:42.670Z,0
2022-11-21T21:19:13.895Z,0
2022-11-21T21:24:31.664Z,0
2022-11-21T21:30:07.104Z,0
2022-11-21T21:35:29.624Z,0
2022-11-21T21:41:15.690Z,2.4
2022-11-21T21:46:30.107Z,2.4
2022-11-21T21:52:25.270Z,3.6
2022-11-21T21:57:51.163Z,2.4
2022-11-21T22:03:07.696Z,0
2022-11-21T22:09:01.723Z,2.4
2022-11-21T22:14:30.913Z,0
2022-11-21T22:19:48.306Z,0
2022-11-21T22:25:35.966Z,0
2022-11-21T22:30:50.346Z,0
2022-11-21T22:36:28.448Z,0
2022-11-21T22:42:03.348Z,0
2022-11-21T22:47:41.359Z,0
2022-11-21T22:53:17.298Z,0
2022-11-21T22:58:52.013Z,0
2022-11-21T23:03:58.266Z,0
2022-11-21T23:09:56.143Z,0
2022-11-21T23:15:11.531Z,0
2022-11-21T23:20:37.189Z,0
2022-11-21T23:26:16.985Z,0
2022-11-21T23:32:01.604Z,0
2022-11-21T23:37:17.672Z,0
2022-11-21T23:43:00.428Z,0
2022-11-21T23:48:15.907Z,0
2022-11-21T23:54:01.148Z,0
2022-11-21T23:59:34.867Z,0
